Terminal Aerodrome Forecast
Issued by NWS Dallas/Fort Worth, TX

Home | Current Version | Previous Version | Text Only | Print | Product List | Glossary On
Versions: 1 2 3 4 5 6 7 8 9 10 11 12 13 14 15 16 17 18 19 20 21 22 23 24 25 26 27 28 29 30 31
993
FTUS44 KFWD 230520
TAFACT
TAF
KACT 230520Z 2306/2406 07005KT P6SM SCT045 BKN100 OVC250
     FM231000 08005KT P6SM VCTS BKN015CB BKN100
      TEMPO 2310/2313 32015KT 3SM -TSRA BKN025CB OVC100
     FM231300 35009KT P6SM BKN022
     FM231900 35015KT P6SM VCSH BKN060 BKN100
      TEMPO 2320/2324 4SM -SHRA
     FM240100 34009KT P6SM SCT100=

USA.gov is the U.S. government's official web portal to all federal, state and local government web resources and services.